Météo Nord-Pas-de-Calais   La météo au plus près de chez vous

Station météorologique

Observations météo à Auxerre-Perrigny (89295)

89295001 152 m Dernier relevé à 13:30
20.2°C
Humidité 93 % Vent 14.4 km/h 1019 hPa

Journée consultée

Lundi 31 Août 2026

Synthèse de la journée

Périodes de référence en UTC

Température maximale

20.5°C

à 11:00

06h 06h

Température minimale

16.2°C

à 05:00

18h 18h

Rafale maximale

37 km/h

à 12:36

00h 00h

Précipitations

1.6 mm

Cumul quotidien

06h 06h

Ensoleillement

3h 0 mins

Durée quotidienne

00h 00h

Graphiques de la journée

Heure locale Réduire

Données détaillées

Relevés météo

Pas de 6 minutes Afficher les relevés infra-horaires
Relevés météo détaillés à Auxerre-Perrigny pour le Lundi 31 Août 2026
Heure Température °C Point de rosée °C Humidité % Vent moyen (raf.), km/h Précipitations mm Température à 10 cm °C Température à 20 cm °C Température à 50 cm °C Température à 100 cm °C Visibilité m État du sol   Hauteur neige cm Ensoleillement min Rayonnement global W/m² Pression hPa Nébulosité Octas
13:30 20.2 °C 15.2 °C 73 % 16 km/h (32 km/h) 0 mm0 mm 20.5 °C 20.5 °C 21.8 °C 22 °C 20000 m 0   0 cm 6 min 291.5 W/m² 1018.6 hPa
13:24 20 °C 16.2 °C 79 % 13 km/h (24 km/h) 0.2 mm0 mm 20.4 °C 20.5 °C 21.8 °C 22 °C 20000 m 0   0 cm 6 min 291.3 W/m² 1018.7 hPa
13:18 19.4 °C 16.1 °C 81 % 15 km/h (28 km/h) 0 mm0 mm 20.4 °C 20.5 °C 21.8 °C 22 °C 20000 m 0   0 cm 6 min 290.8 W/m² 1018.8 hPa
13:12 18.8 °C 15.7 °C 82 % 15 km/h (28 km/h) 0 mm0 mm 20.4 °C 20.5 °C 21.8 °C 22 °C 20000 m 0   0 cm 6 min 292.4 W/m² 1018.9 hPa
13:06 18.2 °C 16.4 °C 89 % 13 km/h (28 km/h) 0 mm0 mm 20.4 °C 20.4 °C 21.8 °C 22 °C 20000 m 1   0 cm 4 min 249.5 W/m² 1018.9 hPa
13:00 17.6 °C 15.8 °C 89 % 15 km/h (28 km/h) 0 mm0.4 mm 20.4 °C 20.4 °C 21.8 °C 22 °C 20000 m 1   0 cm 2 min 157.4 W/m² 1019.1 hPa 7 Octas
12:54 17.4 °C 15.9 °C 91 % 17 km/h (28 km/h) 0 mm0 mm 20.3 °C 20.4 °C 21.9 °C 22.1 °C 17500 m 2   0 cm 0 min 125.5 W/m² 1019.1 hPa
12:48 17.2 °C 15.7 °C 91 % 17 km/h (31 km/h) 0 mm0 mm 20.3 °C 20.4 °C 21.8 °C 22 °C 7420 m 2   0 cm 0 min 97.3 W/m² 1019 hPa
12:42 17.3 °C 15.8 °C 91 % 18 km/h (37 km/h) 0 mm0 mm 20.3 °C 20.4 °C 21.8 °C 22 °C 5490 m 2   0 cm 0 min 70.1 W/m² 1019 hPa
12:36 17.6 °C 16.3 °C 92 % 18 km/h (37 km/h) 0 mm0 mm 20.3 °C 20.4 °C 21.8 °C 22 °C 8320 m 2   0 cm 0 min 104.3 W/m² 1019.1 hPa
12:30 17.5 °C 16.4 °C 93 % 14 km/h (24 km/h) 0 mm0 mm 20.2 °C 20.3 °C 21.8 °C 22 °C 14110 m 2   0 cm 0 min 133.9 W/m² 1019 hPa
12:24 17.3 °C 16.3 °C 94 % 13 km/h (24 km/h) 0 mm0 mm 20.3 °C 20.4 °C 21.9 °C 22.1 °C 7290 m 2   0 cm 0 min 95.8 W/m² 1018.9 hPa
12:18 17.1 °C 16.1 °C 94 % 18 km/h (33 km/h) 0.2 mm0 mm 20.2 °C 20.3 °C 21.9 °C 22 °C 3180 m 2   0 cm 0 min 67.9 W/m² 1018.9 hPa
12:12 17.2 °C 15.7 °C 91 % 18 km/h (33 km/h) 0.2 mm0 mm 20.2 °C 20.3 °C 21.9 °C 22 °C 4640 m 2   0 cm 0 min 54.6 W/m² 1018.8 hPa
12:06 17.6 °C 15.8 °C 89 % 16 km/h (26 km/h) 0 mm0 mm 20.2 °C 20.2 °C 21.9 °C 22 °C 20000 m 1   0 cm 0 min 70 W/m² 1018.8 hPa
12:00 17.6 °C 15.8 °C 89 % 19 km/h (28 km/h) 0 mm1 mm 20.1 °C 20.2 °C 21.9 °C 22 °C 11410 m 1   0 cm 0 min 92.2 W/m² 1018.7 hPa 8 Octas
11:54 17.5 °C 15.7 °C 89 % 17 km/h (28 km/h) 0 mm0 mm 20.1 °C 20.2 °C 21.9 °C 22 °C 10580 m 2   0 cm 0 min 102 W/m² 1018.6 hPa
11:48 17.5 °C 15.8 °C 90 % 15 km/h (25 km/h) 0 mm0 mm 20.1 °C 20.2 °C 21.9 °C 22 °C 17550 m 2   0 cm 0 min 80.8 W/m² 1018.6 hPa
11:42 17.4 °C 15.7 °C 90 % 17 km/h (30 km/h) 0 mm0 mm 20.1 °C 20.2 °C 21.9 °C 22 °C 8950 m 2   0 cm 0 min 68.6 W/m² 1018.7 hPa
11:36 17.5 °C 15.5 °C 88 % 17 km/h (30 km/h) 0.2 mm0 mm 20 °C 20.2 °C 21.9 °C 22.1 °C 7170 m 2   0 cm 0 min 65.5 W/m² 1018.7 hPa
11:30 17.8 °C 16 °C 89 % 15 km/h (24 km/h) 0 mm0 mm 20 °C 20.1 °C 21.9 °C 22 °C 15380 m 1   0 cm 0 min 78.4 W/m² 1018.6 hPa
11:24 17.6 °C 15.6 °C 88 % 16 km/h (27 km/h) 0 mm0 mm 20 °C 20.1 °C 21.9 °C 22 °C 15120 m 2   0 cm 0 min 110.5 W/m² 1018.6 hPa
11:18 17.5 °C 15.5 °C 88 % 18 km/h (29 km/h) 0 mm0 mm 19.9 °C 20.1 °C 21.9 °C 22 °C 6020 m 2   0 cm 0 min 82.3 W/m² 1018.5 hPa
11:12 17.9 °C 15.3 °C 85 % 19 km/h (30 km/h) 0.8 mm0 mm 19.9 °C 20 °C 21.9 °C 22 °C 4980 m 2   0 cm 0 min 37.4 W/m² 1018.5 hPa
11:06 19.3 °C 14.5 °C 74 % 20 km/h (35 km/h) 0 mm0 mm 19.9 °C 20 °C 21.9 °C 22 °C 10750 m 1   0 cm 0 min 42.3 W/m² 1018.3 hPa
11:00 20.1 °C 14.2 °C 69 % 21 km/h (35 km/h) 0 mm0 mm 19.8 °C 19.9 °C 21.9 °C 22 °C 0   0 cm 0 min 104.9 W/m² 1017.9 hPa 7 Octas
10:54 20.4 °C 14.5 °C 69 % 14 km/h (29 km/h) 0 mm0 mm 19.8 °C 19.9 °C 22 °C 22 °C 20000 m 0   0 cm 4 min 153.4 W/m² 1017.9 hPa
10:48 20 °C 14.8 °C 72 % 15 km/h (33 km/h) 0 mm0 mm 19.7 °C 19.9 °C 22 °C 22 °C 20000 m 0   0 cm 0 min 98.2 W/m² 1017.8 hPa
10:42 19.8 °C 14.2 °C 70 % 17 km/h (33 km/h) 0 mm0 mm 19.6 °C 19.9 °C 22 °C 22 °C 20000 m 0   0 cm 0 min 94.4 W/m² 1017.8 hPa
10:36 19.9 °C 14.3 °C 70 % 16 km/h (31 km/h) 0 mm0 mm 19.6 °C 19.9 °C 22 °C 22 °C 20000 m 0   0 cm 1 min 82.8 W/m² 1017.8 hPa
10:30 20.4 °C 15 °C 71 % 16 km/h (31 km/h) 0 mm0 mm 19.6 °C 19.8 °C 22 °C 22 °C 20000 m 0   0 cm 6 min 217.4 W/m² 1017.8 hPa
10:24 19.7 °C 14.3 °C 71 % 17 km/h (31 km/h) 0 mm0 mm 19.5 °C 19.8 °C 22 °C 22 °C 20000 m 0   0 cm 4 min 133.1 W/m² 1017.8 hPa
10:18 19.7 °C 14.7 °C 73 % 19 km/h (34 km/h) 0 mm0 mm 19.5 °C 19.8 °C 22 °C 22 °C 20000 m 0   0 cm 5 min 145.4 W/m² 1017.7 hPa
10:12 19.6 °C 14.8 °C 74 % 21 km/h (34 km/h) 0 mm0 mm 19.4 °C 19.8 °C 22 °C 22 °C 20000 m 0   0 cm 6 min 171.7 W/m² 1017.7 hPa
10:06 19.6 °C 14.6 °C 73 % 19 km/h (30 km/h) 0 mm0 mm 19.4 °C 19.8 °C 22 °C 22 °C 20000 m 0   0 cm 6 min 174.2 W/m² 1017.8 hPa
10:00 19.4 °C 14.6 °C 74 % 18 km/h (30 km/h) 0 mm0 mm 19.4 °C 19.8 °C 22 °C 22 °C 20000 m 0   0 cm 6 min 172.6 W/m² 1017.8 hPa 6 Octas
09:54 19.1 °C 14.8 °C 76 % 19 km/h (31 km/h) 0 mm0 mm 19.3 °C 19.8 °C 22.1 °C 22.1 °C 20000 m 0   0 cm 6 min 170.9 W/m² 1017.8 hPa
09:48 18.8 °C 14.7 °C 77 % 21 km/h (34 km/h) 0 mm0 mm 19.3 °C 19.8 °C 22.1 °C 22 °C 20000 m 0   0 cm 5 min 143.2 W/m² 1017.8 hPa
09:42 18.6 °C 14.9 °C 79 % 19 km/h (32 km/h) 0 mm0 mm 19.3 °C 19.7 °C 22.1 °C 22 °C 20000 m 0   0 cm 0 min 68.5 W/m² 1017.8 hPa
09:36 18.7 °C 15.4 °C 81 % 22 km/h (33 km/h) 0 mm0 mm 19.3 °C 19.7 °C 22.1 °C 22 °C 20000 m 0   0 cm 6 min 142.8 W/m² 1017.8 hPa
09:30 18.4 °C 15.1 °C 81 % 23 km/h (33 km/h) 0 mm0 mm 19.3 °C 19.7 °C 22.1 °C 22 °C 20000 m 0   0 cm 6 min 130.2 W/m² 1017.7 hPa
09:24 18.3 °C 15.4 °C 83 % 23 km/h (31 km/h) 0 mm0 mm 19.3 °C 19.7 °C 22.1 °C 22 °C 20000 m 0   0 cm 6 min 118.2 W/m² 1017.5 hPa
09:18 18.2 °C 15.3 °C 83 % 23 km/h (31 km/h) 0 mm0 mm 19.3 °C 19.8 °C 22.1 °C 22 °C 20000 m 0   0 cm 6 min 118.3 W/m² 1017.4 hPa
09:12 18.1 °C 15.2 °C 83 % 21 km/h (33 km/h) 0 mm0 mm 19.3 °C 19.8 °C 22.1 °C 22.1 °C 19320 m 0   0 cm 6 min 109.9 W/m² 1017.5 hPa
09:06 17.9 °C 15.3 °C 85 % 20 km/h (35 km/h) 0 mm0 mm 19.3 °C 19.8 °C 22.1 °C 22.1 °C 19320 m 0   0 cm 6 min 100.1 W/m² 1017.6 hPa
09:00 17.4 °C 14.9 °C 85 % 22 km/h (35 km/h) 0 mm0 mm 19.2 °C 19.8 °C 22.1 °C 22.1 °C 20000 m 0   0 cm 1 min 37.7 W/m² 1017.6 hPa
08:54 17.6 °C 14.9 °C 84 % 21 km/h (31 km/h) 0 mm0 mm 19.3 °C 19.8 °C 22.1 °C 22 °C 20000 m 0   0 cm 0 min 32.5 W/m² 1017.6 hPa
08:48 17.8 °C 14.9 °C 83 % 18 km/h (27 km/h) 0 mm0 mm 19.3 °C 19.8 °C 22.1 °C 22 °C 20000 m 0   0 cm 0 min 39.8 W/m² 1017.5 hPa
08:42 17.8 °C 14.9 °C 83 % 20 km/h (32 km/h) 0 mm0 mm 19.3 °C 19.8 °C 22.1 °C 22 °C 20000 m 0   0 cm 2 min 45.3 W/m² 1017.5 hPa
08:36 17.9 °C 15 °C 83 % 19 km/h (29 km/h) 0 mm0 mm 19.3 °C 19.8 °C 22.1 °C 22 °C 20000 m 0   0 cm 6 min 71.1 W/m² 1017.5 hPa
08:30 17.8 °C 15.1 °C 84 % 18 km/h (29 km/h) 0 mm0 mm 19.3 °C 19.8 °C 22.1 °C 22 °C 20000 m 0   0 cm 5 min 65.5 W/m² 1017.5 hPa
08:24 17.6 °C 14.9 °C 84 % 17 km/h (28 km/h) 0 mm0 mm 19.3 °C 19.8 °C 22.1 °C 22.1 °C 20000 m 0   0 cm 6 min 63.2 W/m² 1017.4 hPa
08:18 17.4 °C 14.7 °C 84 % 18 km/h (28 km/h) 0 mm0 mm 19.3 °C 19.9 °C 22.1 °C 22 °C 20000 m 0 cm 1 min 27.3 W/m² 1017.3 hPa
08:12 17.6 °C 14.9 °C 84 % 19 km/h (27 km/h) 0 mm0 mm 19.3 °C 19.9 °C 22.1 °C 22 °C 20000 m 1   0 cm 6 min 53.3 W/m² 1017.3 hPa
08:06 17.4 °C 14.9 °C 85 % 18 km/h (26 km/h) 0 mm0 mm 19.3 °C 19.9 °C 22.1 °C 22 °C 20000 m 1   0 cm 6 min 44.6 W/m² 1017.3 hPa
08:00 17.3 °C 14.8 °C 85 % 16 km/h (24 km/h) 0 mm0 mm 19.3 °C 19.9 °C 22.2 °C 22.1 °C 20000 m 1   0 cm 6 min 42.8 W/m² 1017.3 hPa
07:54 17.1 °C 14.6 °C 85 % 13 km/h (21 km/h) 0 mm0 mm 19.4 °C 20 °C 22.2 °C 22.1 °C 20000 m 1   0 cm 6 min 33.5 W/m² 1017.3 hPa
07:48 16.9 °C 14.5 °C 86 % 13 km/h (22 km/h) 0 mm0 mm 19.4 °C 20 °C 22.2 °C 22.1 °C 20000 m 1   0 cm 6 min 27.2 W/m² 1017.3 hPa
07:42 16.8 °C 14.6 °C 87 % 15 km/h (25 km/h) 0 mm0 mm 19.4 °C 20 °C 22.2 °C 22 °C 20000 m 1   0 cm 4 min 16.7 W/m² 1017.2 hPa
07:36 16.7 °C 14.7 °C 88 % 15 km/h (23 km/h) 0 mm0 mm 19.5 °C 20 °C 22.2 °C 22.1 °C 20000 m 1   0 cm 5 min 11.7 W/m² 1017.2 hPa
07:30 16.7 °C 14.7 °C 88 % 17 km/h (27 km/h) 0 mm0 mm 19.5 °C 20 °C 22.2 °C 22.1 °C 20000 m 1   0 cm 5 min 12.1 W/m² 1017.1 hPa
07:24 16.5 °C 14.7 °C 89 % 17 km/h (27 km/h) 0 mm0 mm 19.5 °C 20 °C 22.2 °C 22.1 °C 20000 m 1   0 cm 0 min 4.4 W/m² 1017 hPa
07:18 16.5 °C 14.7 °C 89 % 17 km/h (24 km/h) 0 mm0 mm 19.5 °C 20.1 °C 22.2 °C 22.1 °C 20000 m 1   0 cm 0 min 0 W/m² 1017 hPa
07:12 16.5 °C 14.7 °C 89 % 17 km/h (28 km/h) 0 mm0 mm 19.5 °C 20.1 °C 22.2 °C 22 °C 20000 m 1   0 cm 0 min 0 W/m² 1016.9 hPa
07:06 16.5 °C 14.7 °C 89 % 17 km/h (28 km/h) 0 mm0 mm 19.5 °C 20.1 °C 22.2 °C 22.1 °C 20000 m 1   0 cm 0 min 0 W/m² 1016.9 hPa
07:00 16.4 °C 14.4 °C 88 % 18 km/h (28 km/h) 0 mm0 mm 19.6 °C 20.1 °C 22.2 °C 22.1 °C 20000 m 1   0 cm 0 min 0 W/m² 1016.9 hPa
06:54 16.5 °C 14.5 °C 88 % 17 km/h (28 km/h) 0 mm0 mm 19.6 °C 20.1 °C 22.2 °C 22.1 °C 20000 m 1   0 cm 0 min 0 W/m² 1016.9 hPa
06:48 16.6 °C 14.6 °C 88 % 16 km/h (28 km/h) 0 mm0 mm 19.6 °C 20.2 °C 22.2 °C 22.1 °C 20000 m 1   0 cm 0 min 0 W/m² 1017 hPa
06:42 16.6 °C 14.6 °C 88 % 17 km/h (25 km/h) 0 mm0 mm 19.6 °C 20.2 °C 22.2 °C 22.1 °C 20000 m 1   0 cm 0 min 0 W/m² 1016.9 hPa
06:36 16.6 °C 14.6 °C 88 % 15 km/h (25 km/h) 0 mm0 mm 19.6 °C 20.2 °C 22.2 °C 22.1 °C 20000 m 1   0 cm 0 min 0 W/m² 1017 hPa
06:30 16.6 °C 14.6 °C 88 % 15 km/h (24 km/h) 0 mm0 mm 19.7 °C 20.2 °C 22.2 °C 22.1 °C 20000 m 1   0 cm 0 min 0 W/m² 1017 hPa
06:24 16.6 °C 14.4 °C 87 % 16 km/h (24 km/h) 0 mm0 mm 19.7 °C 20.3 °C 22.2 °C 22.1 °C 20000 m 1   0 cm 0 min 0 W/m² 1016.9 hPa
06:18 16.6 °C 14.4 °C 87 % 18 km/h (26 km/h) 0 mm0 mm 19.7 °C 20.3 °C 22.2 °C 22.1 °C 20000 m 1   0 cm 0 min 0 W/m² 1016.7 hPa
06:12 16.7 °C 14.5 °C 87 % 18 km/h (32 km/h) 0 mm0 mm 19.7 °C 20.3 °C 22.2 °C 22.1 °C 20000 m 1   0 cm 0 min 0 W/m² 1016.7 hPa
06:06 16.8 °C 14.4 °C 86 % 17 km/h (30 km/h) 0 mm0 mm 19.7 °C 20.4 °C 22.3 °C 22.1 °C 20000 m 1   0 cm 0 min 0 W/m² 1016.8 hPa
06:00 16.9 °C 14.5 °C 86 % 18 km/h (32 km/h) 0 mm0 mm 19.8 °C 20.4 °C 22.3 °C 22.1 °C 20000 m 1   0 cm 0 min 0 W/m² 1016.8 hPa
05:54 16.8 °C 14.4 °C 86 % 19 km/h (32 km/h) 0 mm0 mm 19.8 °C 20.4 °C 22.2 °C 22.1 °C 20000 m 1   0 cm 0 min 0 W/m² 1016.8 hPa
05:48 16.7 °C 14.3 °C 86 % 20 km/h (36 km/h) 0 mm0 mm 19.8 °C 20.4 °C 22.3 °C 22.1 °C 20000 m 1   0 cm 0 min 0 W/m² 1016.8 hPa
05:42 16.8 °C 14.3 °C 85 % 19 km/h (33 km/h) 0 mm0 mm 19.8 °C 20.4 °C 22.2 °C 22.1 °C 20000 m 1   0 cm 0 min 0 W/m² 1016.8 hPa
05:36 16.8 °C 14.4 °C 86 % 19 km/h (31 km/h) 0 mm0 mm 19.9 °C 20.5 °C 22.3 °C 22.1 °C 20000 m 1   0 cm 0 min 0 W/m² 1016.7 hPa
05:30 16.8 °C 14.4 °C 86 % 18 km/h (30 km/h) 0 mm0 mm 19.9 °C 20.5 °C 22.2 °C 22.1 °C 20000 m 1   0 cm 0 min 0 W/m² 1016.8 hPa
05:24 16.6 °C 14.2 °C 86 % 19 km/h (32 km/h) 0 mm0 mm 19.9 °C 20.5 °C 22.3 °C 22.1 °C 20000 m 1   0 cm 0 min 0 W/m² 1016.7 hPa
05:18 16.6 °C 14.2 °C 86 % 17 km/h (32 km/h) 0 mm0 mm 20 °C 20.5 °C 22.3 °C 22.1 °C 20000 m 1   0 cm 0 min 0 W/m² 1016.7 hPa
05:12 16.5 °C 14.3 °C 87 % 17 km/h (28 km/h) 0 mm0 mm 20 °C 20.6 °C 22.3 °C 22.1 °C 20000 m 1   0 cm 0 min 0 W/m² 1016.7 hPa
05:06 16.5 °C 14.3 °C 87 % 14 km/h (28 km/h) 0 mm0 mm 20 °C 20.6 °C 22.2 °C 22.1 °C 20000 m 1   0 cm 0 min 0 W/m² 1016.7 hPa
05:00 16.4 °C 14.2 °C 87 % 12 km/h (23 km/h) 0 mm0 mm 20 °C 20.6 °C 22.2 °C 22.1 °C 20000 m 1   0 cm 0 min 0 W/m² 1016.7 hPa
04:54 16.3 °C 14.3 °C 88 % 12 km/h (21 km/h) 0 mm0 mm 20.1 °C 20.7 °C 22.3 °C 22.1 °C 20000 m 1   0 cm 0 min 0 W/m² 1016.7 hPa
04:48 16.3 °C 14.3 °C 88 % 12 km/h (17 km/h) 0 mm0 mm 20.1 °C 20.7 °C 22.3 °C 22.1 °C 20000 m 1   0 cm 0 min 0 W/m² 1016.7 hPa
04:42 16.3 °C 14.3 °C 88 % 12 km/h (19 km/h) 0 mm0 mm 20.1 °C 20.7 °C 22.3 °C 22.1 °C 20000 m 1   0 cm 0 min 0 W/m² 1016.7 hPa
04:36 16.3 °C 14.3 °C 88 % 11 km/h (18 km/h) 0 mm0 mm 20.2 °C 20.7 °C 22.3 °C 22.1 °C 20000 m 1   0 cm 0 min 0 W/m² 1016.7 hPa
04:30 16.3 °C 14.3 °C 88 % 11 km/h (19 km/h) 0 mm0 mm 20.2 °C 20.8 °C 22.3 °C 22.1 °C 20000 m 1   0 cm 0 min 0 W/m² 1016.7 hPa
04:24 16.3 °C 14.3 °C 88 % 10 km/h (19 km/h) 0 mm0 mm 20.2 °C 20.8 °C 22.3 °C 22.1 °C 20000 m 1   0 cm 0 min 0 W/m² 1016.6 hPa
04:18 16.3 °C 14.3 °C 88 % 11 km/h (22 km/h) 0 mm0 mm 20.2 °C 20.8 °C 22.3 °C 22.1 °C 20000 m 1   0 cm 0 min 0 W/m² 1016.6 hPa
04:12 16.3 °C 14.3 °C 88 % 12 km/h (21 km/h) 0 mm0 mm 20.3 °C 20.9 °C 22.3 °C 22.1 °C 20000 m 1   0 cm 0 min 0 W/m² 1016.6 hPa
04:06 16.4 °C 14.4 °C 88 % 12 km/h (21 km/h) 0 mm0 mm 20.3 °C 20.9 °C 22.3 °C 22.1 °C 20000 m 1   0 cm 0 min 0 W/m² 1016.6 hPa
04:00 16.4 °C 14.4 °C 88 % 12 km/h (21 km/h) 0 mm0 mm 20.4 °C 20.9 °C 22.3 °C 22.1 °C 20000 m 1   0 cm 0 min 0 W/m² 1016.7 hPa
03:54 16.5 °C 14.5 °C 88 % 14 km/h (21 km/h) 0 mm0 mm 20.4 °C 20.9 °C 22.3 °C 22.1 °C 20000 m 1   0 cm 0 min 0 W/m² 1016.6 hPa
03:48 16.5 °C 14.5 °C 88 % 14 km/h (21 km/h) 0 mm0 mm 20.4 °C 21 °C 22.3 °C 22.1 °C 20000 m 1   0 cm 0 min 0 W/m² 1016.6 hPa
03:42 16.5 °C 14.5 °C 88 % 14 km/h (23 km/h) 0 mm0 mm 20.5 °C 21 °C 22.3 °C 22.1 °C 20000 m 1   0 cm 0 min 0 W/m² 1016.6 hPa
03:36 16.6 °C 14.6 °C 88 % 14 km/h (23 km/h) 0 mm0 mm 20.5 °C 21 °C 22.3 °C 22.1 °C 20000 m 1   0 cm 0 min 0 W/m² 1016.6 hPa
03:30 16.6 °C 14.6 °C 88 % 15 km/h (22 km/h) 0 mm0 mm 20.5 °C 21.1 °C 22.3 °C 22.1 °C 20000 m 1   0 cm 0 min 0 W/m² 1016.7 hPa
03:24 16.6 °C 14.6 °C 88 % 14 km/h (22 km/h) 0 mm0 mm 20.6 °C 21.1 °C 22.3 °C 22.1 °C 20000 m 1   0 cm 0 min 0 W/m² 1016.7 hPa
03:18 16.6 °C 14.6 °C 88 % 14 km/h (22 km/h) 0 mm0 mm 20.6 °C 21.2 °C 22.3 °C 22.1 °C 20000 m 1   0 cm 0 min 0 W/m² 1016.6 hPa
03:12 16.7 °C 14.9 °C 89 % 14 km/h (22 km/h) 0 mm0 mm 20.6 °C 21.2 °C 22.3 °C 22.1 °C 20000 m 1   0 cm 0 min 0 W/m² 1016.6 hPa
03:06 16.7 °C 14.9 °C 89 % 15 km/h (24 km/h) 0 mm0 mm 20.7 °C 21.2 °C 22.3 °C 22.1 °C 20000 m 1   0 cm 0 min 0 W/m² 1016.6 hPa
03:00 16.8 °C 15 °C 89 % 15 km/h (24 km/h) 0 mm0 mm 20.7 °C 21.3 °C 22.3 °C 22.1 °C 20000 m 1   0 cm 0 min 0 W/m² 1016.6 hPa
02:54 16.7 °C 14.9 °C 89 % 13 km/h (23 km/h) 0 mm0 mm 20.7 °C 21.3 °C 22.3 °C 22.1 °C 20000 m 1   0 cm 0 min 0 W/m² 1016.6 hPa
02:48 16.6 °C 14.8 °C 89 % 13 km/h (22 km/h) 0 mm0 mm 20.8 °C 21.3 °C 22.3 °C 22.1 °C 20000 m 1   0 cm 0 min 0 W/m² 1016.6 hPa
02:42 16.6 °C 14.8 °C 89 % 13 km/h (22 km/h) 0 mm0 mm 20.8 °C 21.3 °C 22.3 °C 22.1 °C 20000 m 1   0 cm 0 min 0 W/m² 1016.5 hPa
02:36 16.7 °C 14.9 °C 89 % 12 km/h (21 km/h) 0 mm0 mm 20.8 °C 21.4 °C 22.3 °C 22.1 °C 20000 m 1   0 cm 0 min 0 W/m² 1016.5 hPa
02:30 16.7 °C 14.9 °C 89 % 12 km/h (21 km/h) 0 mm0 mm 20.9 °C 21.4 °C 22.3 °C 22.1 °C 20000 m 1   0 cm 0 min 0 W/m² 1016.5 hPa
02:24 16.8 °C 14.8 °C 88 % 13 km/h (22 km/h) 0 mm0 mm 20.9 °C 21.4 °C 22.3 °C 22.1 °C 20000 m 1   0 cm 0 min 0 W/m² 1016.5 hPa
02:18 16.7 °C 14.7 °C 88 % 12 km/h (22 km/h) 0 mm0 mm 20.9 °C 21.5 °C 22.3 °C 22.1 °C 20000 m 1   0 cm 0 min 0 W/m² 1016.5 hPa
02:12 16.8 °C 14.8 °C 88 % 13 km/h (22 km/h) 0 mm0 mm 21 °C 21.5 °C 22.3 °C 22.1 °C 20000 m 1   0 cm 0 min 0 W/m² 1016.5 hPa
02:06 16.8 °C 14.8 °C 88 % 13 km/h (21 km/h) 0 mm0 mm 21 °C 21.6 °C 22.3 °C 22.1 °C 20000 m 1   0 cm 0 min 0 W/m² 1016.5 hPa
02:00 16.8 °C 15 °C 89 % 12 km/h (21 km/h) 0 mm0 mm 21 °C 21.6 °C 22.2 °C 22.1 °C 20000 m 1   0 cm 0 min 0 W/m² 1016.5 hPa
01:54 16.7 °C 14.9 °C 89 % 12 km/h (21 km/h) 0 mm0 mm 21.1 °C 21.6 °C 22.3 °C 22.1 °C 20000 m 1   0 cm 0 min 0 W/m² 1016.5 hPa
01:48 16.7 °C 14.9 °C 89 % 13 km/h (22 km/h) 0 mm0 mm 21.2 °C 21.7 °C 22.3 °C 22.1 °C 20000 m 1   0 cm 0 min 0 W/m² 1016.5 hPa
01:42 16.7 °C 14.7 °C 88 % 14 km/h (22 km/h) 0 mm0 mm 21.2 °C 21.7 °C 22.2 °C 22.1 °C 20000 m 1   0 cm 0 min 0 W/m² 1016.5 hPa
01:36 16.8 °C 14.8 °C 88 % 14 km/h (24 km/h) 0 mm0 mm 21.2 °C 21.7 °C 22.2 °C 22.1 °C 20000 m 1   0 cm 0 min 0 W/m² 1016.4 hPa
01:30 16.9 °C 14.7 °C 87 % 14 km/h (24 km/h) 0 mm0 mm 21.3 °C 21.8 °C 22.2 °C 22.1 °C 20000 m 1   0 cm 0 min 0 W/m² 1016.4 hPa
01:24 16.9 °C 14.7 °C 87 % 13 km/h (22 km/h) 0 mm0 mm 21.3 °C 21.8 °C 22.2 °C 22.1 °C 20000 m 1   0 cm 0 min 0 W/m² 1016.4 hPa
01:18 17 °C 14.8 °C 87 % 12 km/h (23 km/h) 0 mm0 mm 21.4 °C 21.8 °C 22.2 °C 22.1 °C 20000 m 1   0 cm 0 min 0 W/m² 1016.3 hPa
01:12 17 °C 14.8 °C 87 % 13 km/h (23 km/h) 0 mm0 mm 21.5 °C 21.9 °C 22.2 °C 22.1 °C 20000 m 1   0 cm 0 min 0 W/m² 1016.2 hPa
01:06 17 °C 14.6 °C 86 % 14 km/h (23 km/h) 0 mm0 mm 21.5 °C 21.9 °C 22.2 °C 22.1 °C 20000 m 1   0 cm 0 min 0 W/m² 1016.2 hPa
01:00 17.1 °C 14.7 °C 86 % 14 km/h (23 km/h) 0 mm0 mm 21.5 °C 22 °C 22.2 °C 22.1 °C 20000 m 1   0 cm 0 min 0 W/m² 1016.1 hPa
00:54 17.1 °C 14.7 °C 86 % 14 km/h (24 km/h) 0 mm0 mm 21.6 °C 22 °C 22.2 °C 22.1 °C 20000 m 0 cm 0 min 0 W/m² 1016 hPa
00:48 17.2 °C 14.8 °C 86 % 13 km/h (24 km/h) 0 mm0 mm 21.6 °C 22 °C 22.2 °C 22.1 °C 20000 m 0 cm 0 min 0 W/m² 1015.9 hPa
00:42 17.3 °C 14.8 °C 85 % 13 km/h (23 km/h) 0 mm0 mm 21.7 °C 22.1 °C 22.2 °C 22.1 °C 20000 m 0 cm 0 min 0 W/m² 1016 hPa
00:36 17.4 °C 14.9 °C 85 % 14 km/h (23 km/h) 0 mm0 mm 21.7 °C 22.1 °C 22.2 °C 22.1 °C 20000 m 0 cm 0 min 0 W/m² 1015.9 hPa
00:30 17.4 °C 14.9 °C 85 % 14 km/h (23 km/h) 0 mm0 mm 21.7 °C 22.1 °C 22.2 °C 22.1 °C 7520 m 0 cm 0 min 0 W/m² 1015.8 hPa
00:24 17.4 °C 14.9 °C 85 % 14 km/h (25 km/h) 0 mm0 mm 21.8 °C 22.2 °C 22.2 °C 22.1 °C 20000 m 0 cm 0 min 0 W/m² 1015.8 hPa
00:18 17.5 °C 14.8 °C 84 % 14 km/h (25 km/h) 0 mm0 mm 21.8 °C 22.2 °C 22.2 °C 22.1 °C 20000 m 0 cm 0 min 0 W/m² 1015.7 hPa
00:12 17.6 °C 14.9 °C 84 % 13 km/h (24 km/h) 0 mm0 mm 21.9 °C 22.3 °C 22.2 °C 22.1 °C 20000 m 0 cm 0 min 0 W/m² 1015.6 hPa
00:06 17.7 °C 15 °C 84 % 13 km/h (22 km/h) 0 mm0 mm 21.9 °C 22.3 °C 22.2 °C 22.1 °C 20000 m 0 cm 0 min 0 W/m² 1015.6 hPa
00:00 17.7 °C 15 °C 84 % 12 km/h (21 km/h) 0 mm0 mm 22 °C 22.3 °C 22.2 °C 22.1 °C 20000 m 0 cm 0 min 0 W/m² 1015.4 hPa

Données via Météo-France

Relevés météo à Auxerre-Perrigny

Cette page rassemble les observations de la station de Auxerre-Perrigny : température, humidité, vent, précipitations et pression atmosphérique. Les graphiques facilitent le suivi de la journée, tandis que le tableau donne accès aux mesures horaires et infra-horaires disponibles.

Pour replacer ces mesures dans leur contexte, consultez la climatologie de Auxerre-Perrigny. Retrouvez aussi la carte des observations météo en temps réel.